createdAt,value
2017-08-06T00:01:21.840Z,68.92
2017-08-06T00:03:48.246Z,68.91
2017-08-06T00:06:14.657Z,68.93
2017-08-06T00:08:41.824Z,69.13
2017-08-06T00:11:08.275Z,69.24
2017-08-06T00:13:34.720Z,69.20
2017-08-06T00:16:01.190Z,69.15
2017-08-06T00:18:27.682Z,69.02
2017-08-06T00:20:54.082Z,68.96
2017-08-06T00:23:20.956Z,69.05
2017-08-06T00:25:47.373Z,69.17
2017-08-06T00:28:13.868Z,69.45
2017-08-06T00:30:40.341Z,69.30
2017-08-06T00:33:06.792Z,69.58
2017-08-06T00:35:33.287Z,69.56
2017-08-06T00:37:59.692Z,69.48
2017-08-06T00:40:26.533Z,69.36
2017-08-06T00:42:52.964Z,69.60
2017-08-06T00:45:19.430Z,69.55
2017-08-06T00:47:45.887Z,69.63
2017-08-06T00:50:12.376Z,69.65
2017-08-06T00:52:38.923Z,69.69
2017-08-06T00:55:05.370Z,69.95
2017-08-06T00:57:31.832Z,70.21
2017-08-06T00:59:58.243Z,70.09
2017-08-06T01:02:24.632Z,70.10
2017-08-06T01:04:51.103Z,70.07
2017-08-06T01:07:18.639Z,70.30
2017-08-06T01:09:45.064Z,70.39
2017-08-06T01:12:11.556Z,70.36
2017-08-06T01:14:37.984Z,70.30
2017-08-06T01:17:04.474Z,70.35
2017-08-06T01:19:31.059Z,70.51
2017-08-06T01:21:57.522Z,70.48
2017-08-06T01:24:24.030Z,70.40
2017-08-06T01:26:50.508Z,70.39
2017-08-06T01:29:16.982Z,70.47
2017-08-06T01:31:43.492Z,70.46
2017-08-06T01:34:09.927Z,70.50
2017-08-06T01:36:36.394Z,70.73
2017-08-06T01:39:02.849Z,70.85
2017-08-06T01:41:29.333Z,70.87
2017-08-06T01:43:55.787Z,70.68
2017-08-06T01:46:22.254Z,70.76
2017-08-06T01:48:48.755Z,70.96
2017-08-06T01:51:15.182Z,70.76
2017-08-06T01:53:41.654Z,70.87
2017-08-06T01:56:08.098Z,71.06
2017-08-06T01:58:34.569Z,71.08
2017-08-06T02:01:01.071Z,71.25
2017-08-06T02:03:27.555Z,71.09
2017-08-06T02:05:53.938Z,71.21
2017-08-06T02:08:20.379Z,71.12
2017-08-06T02:10:46.851Z,70.96
2017-08-06T02:13:13.270Z,71.01
2017-08-06T02:15:39.721Z,71.12
2017-08-06T02:18:06.106Z,71.36
2017-08-06T02:20:32.577Z,71.43
2017-08-06T02:23:03.889Z,71.67
2017-08-06T02:25:30.367Z,71.70
2017-08-06T02:27:56.818Z,72.01
2017-08-06T02:30:23.307Z,71.96
2017-08-06T02:32:49.738Z,71.98
2017-08-06T02:35:16.181Z,71.91
2017-08-06T02:37:42.914Z,72.02
2017-08-06T02:40:09.350Z,72.07
2017-08-06T02:42:35.798Z,72.27
2017-08-06T02:45:02.248Z,72.09
2017-08-06T02:47:28.727Z,72.16
2017-08-06T02:49:55.200Z,72.31
2017-08-06T02:52:21.662Z,72.25
2017-08-06T02:54:48.151Z,72.16
2017-08-06T02:57:14.644Z,72.36
2017-08-06T02:59:41.121Z,72.59
2017-08-06T03:02:07.602Z,72.25
2017-08-06T03:04:34.117Z,72.39
2017-08-06T03:07:00.617Z,72.33
2017-08-06T03:09:27.019Z,72.28
2017-08-06T03:11:53.475Z,72.20
2017-08-06T03:14:20.113Z,72.41
2017-08-06T03:16:46.518Z,72.55
2017-08-06T03:19:13.512Z,72.94
2017-08-06T03:21:40.021Z,73.08
2017-08-06T03:24:07.482Z,73.18
2017-08-06T03:26:33.977Z,73.16
2017-08-06T03:29:01.363Z,73.17
2017-08-06T03:31:28.992Z,73.04
2017-08-06T03:33:55.462Z,72.96
2017-08-06T03:36:21.958Z,73.15
2017-08-06T03:38:48.462Z,73.28
2017-08-06T03:41:15.052Z,73.00
2017-08-06T03:43:42.606Z,73.24
2017-08-06T03:46:09.071Z,73.04
2017-08-06T03:48:36.908Z,73.17
2017-08-06T03:51:03.408Z,73.20
2017-08-06T03:53:29.873Z,73.17
2017-08-06T03:55:57.239Z,73.49
2017-08-06T03:58:23.655Z,73.28
2017-08-06T04:00:50.144Z,73.60
2017-08-06T04:03:16.656Z,73.39
2017-08-06T04:05:43.078Z,73.61
2017-08-06T04:08:09.556Z,73.38
2017-08-06T04:10:35.984Z,73.53
2017-08-06T04:13:03.580Z,73.48
2017-08-06T04:15:30.917Z,73.58
2017-08-06T04:17:57.336Z,73.68
2017-08-06T04:20:23.832Z,73.57
2017-08-06T04:22:50.344Z,73.86
2017-08-06T04:25:16.854Z,74.09
2017-08-06T04:27:43.335Z,73.84
2017-08-06T04:30:09.809Z,73.83
2017-08-06T04:32:36.305Z,73.90
2017-08-06T04:35:02.743Z,73.88
2017-08-06T04:37:29.231Z,74.02
2017-08-06T04:39:55.663Z,74.01
2017-08-06T04:42:22.179Z,74.59
2017-08-06T04:44:48.601Z,74.45
2017-08-06T04:47:15.087Z,74.43
2017-08-06T04:49:41.539Z,74.65
2017-08-06T04:52:07.958Z,74.40
2017-08-06T04:54:34.437Z,74.32
2017-08-06T04:57:00.836Z,74.18
2017-08-06T04:59:27.459Z,74.22
2017-08-06T05:01:53.865Z,74.34
2017-08-06T05:04:20.367Z,74.07
2017-08-06T05:06:46.891Z,74.10
2017-08-06T05:09:13.328Z,74.34
2017-08-06T05:11:39.820Z,74.60
2017-08-06T05:14:06.266Z,74.71
2017-08-06T05:16:33.260Z,74.70
2017-08-06T05:18:59.690Z,74.62
2017-08-06T05:21:26.160Z,74.53
2017-08-06T05:23:52.653Z,74.46
2017-08-06T05:26:19.119Z,74.45
2017-08-06T05:28:45.651Z,74.32
2017-08-06T05:31:12.083Z,74.80
2017-08-06T05:33:38.549Z,74.54
2017-08-06T05:36:05.030Z,74.68
2017-08-06T05:38:31.525Z,74.68
2017-08-06T05:40:58.844Z,74.67
2017-08-06T05:43:25.324Z,74.61
2017-08-06T05:45:51.743Z,74.89
2017-08-06T05:48:18.305Z,74.61
2017-08-06T05:50:44.742Z,74.55
2017-08-06T05:53:11.218Z,74.49
2017-08-06T05:55:37.671Z,74.56
2017-08-06T05:58:04.115Z,74.57
2017-08-06T06:00:30.569Z,74.33
2017-08-06T06:02:57.449Z,74.33
2017-08-06T06:05:24.003Z,74.33
2017-08-06T06:07:50.466Z,74.25
2017-08-06T06:10:16.918Z,74.19
2017-08-06T06:12:43.664Z,74.10
2017-08-06T06:15:10.083Z,74.10
2017-08-06T06:17:36.590Z,74.03
2017-08-06T06:20:03.048Z,74.10
2017-08-06T06:22:29.563Z,73.98
2017-08-06T06:24:56.023Z,74.15
2017-08-06T06:27:22.469Z,74.21
2017-08-06T06:29:48.884Z,74.14
2017-08-06T06:32:15.354Z,74.40
2017-08-06T06:34:41.824Z,74.21
2017-08-06T06:37:08.280Z,74.22
2017-08-06T06:39:34.763Z,74.17
2017-08-06T06:42:01.339Z,74.27
2017-08-06T06:44:27.765Z,74.28
2017-08-06T06:46:54.270Z,74.24
2017-08-06T06:49:20.733Z,74.15
2017-08-06T06:51:47.152Z,74.29
2017-08-06T06:54:13.639Z,74.31
2017-08-06T06:56:40.058Z,74.37
2017-08-06T06:59:06.475Z,74.21
2017-08-06T07:01:32.978Z,74.20
2017-08-06T07:03:59.411Z,74.14
2017-08-06T07:06:26.134Z,74.05
2017-08-06T07:08:52.623Z,74.02
2017-08-06T07:11:19.020Z,74.04
2017-08-06T07:13:45.475Z,74.07
2017-08-06T07:16:11.969Z,74.05
2017-08-06T07:18:38.443Z,73.89
2017-08-06T07:21:04.865Z,73.86
2017-08-06T07:23:31.350Z,73.77
2017-08-06T07:25:57.814Z,73.75
2017-08-06T07:28:24.592Z,73.85
2017-08-06T07:30:51.101Z,73.79
2017-08-06T07:33:17.582Z,73.80
2017-08-06T07:35:44.065Z,73.73
2017-08-06T07:38:10.512Z,73.64
2017-08-06T07:40:36.978Z,73.54
2017-08-06T07:43:04.207Z,73.47
2017-08-06T07:45:30.698Z,73.39
2017-08-06T07:47:58.111Z,73.48
2017-08-06T07:50:24.529Z,73.38
2017-08-06T07:52:51.027Z,73.32
2017-08-06T07:55:18.095Z,73.21
2017-08-06T07:57:44.905Z,73.06
2017-08-06T08:00:11.333Z,72.96
2017-08-06T08:02:37.829Z,72.84
2017-08-06T08:05:05.428Z,72.91
2017-08-06T08:07:31.839Z,72.83
2017-08-06T08:09:59.383Z,72.63
2017-08-06T08:12:25.891Z,72.39
2017-08-06T08:14:52.309Z,72.41
2017-08-06T08:17:19.093Z,72.17
2017-08-06T08:19:45.583Z,71.89
2017-08-06T08:22:12.075Z,71.88
2017-08-06T08:24:38.668Z,71.77
2017-08-06T08:27:06.180Z,71.47
2017-08-06T08:29:32.627Z,71.52
2017-08-06T08:31:59.049Z,71.57
2017-08-06T08:34:25.548Z,71.39
2017-08-06T08:36:52.028Z,71.14
2017-08-06T08:39:18.475Z,71.06
2017-08-06T08:41:44.920Z,70.79
2017-08-06T08:44:11.459Z,70.75
2017-08-06T08:46:37.934Z,69.90
2017-08-06T08:49:04.790Z,70.24
2017-08-06T08:51:31.219Z,70.09
2017-08-06T08:53:57.684Z,70.07
2017-08-06T08:56:24.171Z,70.00
2017-08-06T08:58:50.639Z,69.89
2017-08-06T09:01:17.103Z,69.60
2017-08-06T09:03:43.614Z,69.22
2017-08-06T09:06:10.153Z,69.19
2017-08-06T09:08:36.607Z,68.70
2017-08-06T09:11:03.096Z,69.05
2017-08-06T09:13:29.531Z,68.15
2017-08-06T09:15:55.996Z,68.52
2017-08-06T09:18:22.481Z,68.43
2017-08-06T09:20:48.994Z,68.29
2017-08-06T09:23:15.459Z,67.97
2017-08-06T09:25:41.955Z,67.74
2017-08-06T09:28:08.477Z,67.84
2017-08-06T09:30:35.947Z,68.14
2017-08-06T09:33:02.449Z,68.26
2017-08-06T09:35:29.957Z,68.32
2017-08-06T09:37:56.490Z,68.46
2017-08-06T09:40:25.026Z,68.72
2017-08-06T09:42:51.832Z,68.86
2017-08-06T09:45:19.478Z,69.12
2017-08-06T09:47:46.199Z,69.14
2017-08-06T09:50:12.738Z,69.25
2017-08-06T09:52:40.573Z,69.37
2017-08-06T09:55:07.305Z,69.57
2017-08-06T09:57:34.051Z,69.80
2017-08-06T10:00:00.578Z,69.83
2017-08-06T10:02:27.250Z,70.01
2017-08-06T10:04:53.866Z,70.21
2017-08-06T10:07:20.757Z,70.16
2017-08-06T10:09:47.370Z,70.28
2017-08-06T10:12:15.152Z,69.97
2017-08-06T10:14:41.783Z,70.05
2017-08-06T10:17:08.661Z,69.89
2017-08-06T10:19:35.173Z,69.87
2017-08-06T10:22:03.211Z,69.95
2017-08-06T10:24:30.760Z,69.88
2017-08-06T10:26:57.305Z,69.82
2017-08-06T10:29:24.600Z,69.74
2017-08-06T10:31:51.589Z,69.65
2017-08-06T10:34:18.950Z,69.47
2017-08-06T10:36:45.482Z,69.24
2017-08-06T10:39:11.998Z,69.04
2017-08-06T10:41:38.425Z,68.84
2017-08-06T10:44:05.830Z,68.34
2017-08-06T10:46:32.498Z,68.23
2017-08-06T10:48:58.988Z,68.00
2017-08-06T10:51:25.399Z,67.51
2017-08-06T10:53:51.983Z,66.67
2017-08-06T10:56:19.503Z,67.18
2017-08-06T10:58:45.987Z,67.20
2017-08-06T11:01:12.472Z,67.33
2017-08-06T11:03:38.932Z,67.49
2017-08-06T11:06:05.386Z,67.55
2017-08-06T11:08:32.833Z,67.71
2017-08-06T11:10:59.273Z,67.71
2017-08-06T11:13:25.725Z,67.73
2017-08-06T11:15:52.170Z,67.55
2017-08-06T11:18:19.355Z,67.59
2017-08-06T11:20:45.826Z,67.46
2017-08-06T11:23:13.145Z,67.52
2017-08-06T11:25:39.619Z,67.44
2017-08-06T11:28:06.127Z,67.18
2017-08-06T11:30:32.621Z,67.24
2017-08-06T11:33:02.249Z,67.26
2017-08-06T11:35:28.696Z,67.09
2017-08-06T11:37:55.189Z,66.95
2017-08-06T11:40:21.662Z,66.86
2017-08-06T11:42:48.095Z,66.76
2017-08-06T11:45:14.583Z,66.57
2017-08-06T11:47:41.030Z,66.41
2017-08-06T11:50:07.440Z,65.89
2017-08-06T11:52:33.905Z,65.46
2017-08-06T11:55:00.435Z,65.74
2017-08-06T11:57:26.849Z,65.45
2017-08-06T11:59:53.299Z,65.24
2017-08-06T12:02:19.812Z,64.86
2017-08-06T12:04:46.207Z,64.42
2017-08-06T12:07:12.676Z,64.47
2017-08-06T12:09:39.887Z,63.92
2017-08-06T12:12:06.411Z,63.16
2017-08-06T12:14:32.835Z,63.73
2017-08-06T12:16:59.495Z,63.17
2017-08-06T12:19:26.050Z,63.12
2017-08-06T12:21:52.479Z,63.04
2017-08-06T12:24:18.998Z,62.18
2017-08-06T12:26:45.468Z,62.96
2017-08-06T12:29:11.964Z,62.57
2017-08-06T12:31:38.377Z,62.16
2017-08-06T12:34:04.804Z,62.09
2017-08-06T12:36:31.344Z,62.48
2017-08-06T12:38:57.829Z,61.75
2017-08-06T12:41:24.345Z,61.74
2017-08-06T12:43:50.712Z,61.82
2017-08-06T12:46:17.168Z,61.83
2017-08-06T12:48:43.588Z,62.07
2017-08-06T12:51:10.143Z,62.16
2017-08-06T12:53:36.638Z,61.16
2017-08-06T12:56:03.039Z,61.77
2017-08-06T12:58:29.524Z,62.07
2017-08-06T13:00:55.960Z,61.94
2017-08-06T13:03:22.444Z,61.60
2017-08-06T13:05:49.765Z,61.14
2017-08-06T13:08:16.239Z,61.78
2017-08-06T13:10:42.809Z,61.76
2017-08-06T13:13:09.222Z,61.43
2017-08-06T13:15:36.540Z,61.01
2017-08-06T13:18:03.128Z,61.07
2017-08-06T13:20:29.558Z,61.22
2017-08-06T13:22:55.983Z,61.30
2017-08-06T13:25:22.406Z,60.84
2017-08-06T13:27:48.960Z,60.22
2017-08-06T13:30:15.391Z,60.89
2017-08-06T13:32:42.643Z,61.02
2017-08-06T13:35:09.128Z,60.87
2017-08-06T13:37:35.678Z,60.97
2017-08-06T13:40:03.021Z,60.98
2017-08-06T13:42:29.537Z,61.07
2017-08-06T13:44:56.940Z,61.77
2017-08-06T13:47:24.352Z,62.21
2017-08-06T13:49:50.802Z,62.32
2017-08-06T13:52:17.488Z,62.55
2017-08-06T13:54:44.339Z,62.54
2017-08-06T13:57:12.204Z,62.80
2017-08-06T13:59:39.052Z,63.40
2017-08-06T14:02:05.751Z,63.60
2017-08-06T14:04:32.244Z,64.10
2017-08-06T14:06:59.095Z,64.15
2017-08-06T14:09:25.775Z,64.28
2017-08-06T14:11:52.851Z,64.32
2017-08-06T14:14:19.420Z,64.43
2017-08-06T14:16:45.901Z,64.17
2017-08-06T14:19:12.373Z,64.11
2017-08-06T14:21:38.885Z,64.18
2017-08-06T14:24:06.686Z,64.12
2017-08-06T14:26:33.175Z,63.92
2017-08-06T14:29:00.087Z,63.87
2017-08-06T14:31:26.515Z,64.04
2017-08-06T14:33:53.001Z,63.95
2017-08-06T14:36:19.450Z,63.82
2017-08-06T14:38:45.914Z,63.45
2017-08-06T14:41:12.826Z,63.25
2017-08-06T14:43:39.528Z,63.32
2017-08-06T14:46:06.056Z,63.43
2017-08-06T14:48:32.509Z,63.30
2017-08-06T14:50:59.432Z,63.08
2017-08-06T14:53:25.877Z,63.21
2017-08-06T14:55:53.217Z,63.17
2017-08-06T14:58:19.677Z,63.00
2017-08-06T15:00:46.120Z,62.94
2017-08-06T15:03:12.636Z,62.96
2017-08-06T15:05:39.005Z,62.59
2017-08-06T15:08:05.516Z,62.50
2017-08-06T15:10:32.791Z,62.12
2017-08-06T15:13:00.378Z,62.06
2017-08-06T15:15:27.758Z,61.78
2017-08-06T15:17:54.270Z,61.83
2017-08-06T15:20:20.704Z,61.99
2017-08-06T15:22:47.132Z,61.89
2017-08-06T15:25:13.697Z,61.79
2017-08-06T15:27:41.132Z,62.03
2017-08-06T15:30:08.541Z,61.64
2017-08-06T15:32:35.005Z,60.96
2017-08-06T15:35:02.482Z,61.07
2017-08-06T15:37:29.894Z,61.42
2017-08-06T15:39:56.511Z,61.11
2017-08-06T15:42:23.020Z,61.06
2017-08-06T15:44:49.438Z,60.54
2017-08-06T15:47:15.885Z,61.05
2017-08-06T15:49:42.602Z,61.32
2017-08-06T15:52:09.055Z,61.03
2017-08-06T15:54:35.532Z,60.55
2017-08-06T15:57:03.730Z,60.92
2017-08-06T15:59:30.255Z,61.04
2017-08-06T16:01:56.675Z,61.06
2017-08-06T16:04:23.218Z,61.00
2017-08-06T16:06:50.640Z,60.72
2017-08-06T16:09:18.103Z,60.66
2017-08-06T16:11:44.667Z,60.85
2017-08-06T16:14:11.089Z,60.41
2017-08-06T16:16:37.566Z,60.78
2017-08-06T16:19:03.964Z,60.87
2017-08-06T16:21:30.473Z,60.47
2017-08-06T16:23:56.893Z,60.00
2017-08-06T16:26:23.457Z,60.48
2017-08-06T16:28:49.923Z,60.46
2017-08-06T16:31:16.517Z,60.43
2017-08-06T16:33:42.974Z,59.97
2017-08-06T16:36:09.374Z,59.63
2017-08-06T16:38:35.833Z,59.27
2017-08-06T16:41:02.317Z,59.60
2017-08-06T16:43:29.017Z,59.83
2017-08-06T16:45:55.472Z,59.67
2017-08-06T16:48:21.911Z,58.67
2017-08-06T16:50:48.430Z,57.77
2017-08-06T16:53:15.759Z,59.04
2017-08-06T16:55:42.237Z,58.67
2017-08-06T16:58:08.698Z,59.24
2017-08-06T17:00:35.252Z,59.01
2017-08-06T17:03:01.747Z,59.19
2017-08-06T17:05:28.227Z,58.90
2017-08-06T17:07:54.713Z,59.31
2017-08-06T17:10:21.132Z,59.71
2017-08-06T17:12:47.652Z,59.42
2017-08-06T17:15:14.167Z,59.81
2017-08-06T17:17:40.964Z,59.31
2017-08-06T17:20:08.461Z,59.65
2017-08-06T17:22:34.937Z,59.92
2017-08-06T17:25:01.391Z,59.45
2017-08-06T17:27:27.863Z,59.45
2017-08-06T17:29:54.339Z,59.89
2017-08-06T17:32:20.786Z,59.31
2017-08-06T17:34:47.716Z,59.37
2017-08-06T17:37:14.170Z,59.19
2017-08-06T17:39:40.592Z,59.31
2017-08-06T17:42:08.007Z,60.31
2017-08-06T17:44:34.447Z,60.05
2017-08-06T17:47:00.956Z,59.65
2017-08-06T17:49:27.402Z,59.66
2017-08-06T17:51:53.842Z,59.72
2017-08-06T17:54:20.771Z,60.67
2017-08-06T17:56:47.245Z,60.59
2017-08-06T17:59:13.707Z,60.41
2017-08-06T18:01:40.179Z,60.04
2017-08-06T18:04:06.607Z,60.15
2017-08-06T18:06:33.035Z,60.48
2017-08-06T18:08:59.574Z,60.38
2017-08-06T18:11:26.002Z,60.85
2017-08-06T18:13:52.722Z,60.70
2017-08-06T18:16:19.173Z,60.75
2017-08-06T18:18:45.915Z,61.05
2017-08-06T18:21:13.266Z,60.65
2017-08-06T18:23:52.579Z,60.85
2017-08-06T18:26:39.929Z,60.85
2017-08-06T18:29:19.812Z,60.70
2017-08-06T18:32:00.158Z,60.84
2017-08-06T18:34:39.821Z,60.88
2017-08-06T18:37:18.183Z,60.88
2017-08-06T18:39:53.301Z,60.93
2017-08-06T18:42:31.119Z,60.98
2017-08-06T18:45:13.652Z,61.15
2017-08-06T18:47:50.836Z,61.15
2017-08-06T18:50:31.056Z,61.28
2017-08-06T18:53:15.513Z,61.29
2017-08-06T18:55:53.816Z,61.41
2017-08-06T18:58:33.154Z,61.58
2017-08-06T19:01:09.781Z,61.64
2017-08-06T19:03:51.074Z,61.72
2017-08-06T19:06:32.196Z,61.84
2017-08-06T19:09:11.352Z,62.04
2017-08-06T19:11:52.828Z,62.01
2017-08-06T19:14:31.690Z,62.14
2017-08-06T19:17:12.919Z,62.24
2017-08-06T19:19:53.902Z,62.35
2017-08-06T19:22:34.864Z,62.45
2017-08-06T19:25:10.176Z,62.58
2017-08-06T19:27:51.561Z,62.67
2017-08-06T19:30:36.500Z,62.79
2017-08-06T19:33:24.403Z,63.02
2017-08-06T19:36:05.901Z,63.11
2017-08-06T19:38:48.379Z,63.21
2017-08-06T19:41:30.595Z,63.28
2017-08-06T19:44:13.518Z,63.53
2017-08-06T19:46:54.106Z,63.67
2017-08-06T19:49:36.595Z,63.74
2017-08-06T19:52:15.673Z,63.92
2017-08-06T19:57:40.071Z,64.15
2017-08-06T20:00:24.526Z,64.25
2017-08-06T20:05:49.862Z,64.51
2017-08-06T20:08:29.365Z,64.60
2017-08-06T20:11:09.485Z,64.62
2017-08-06T20:13:51.066Z,64.69
2017-08-06T20:16:32.677Z,64.80
2017-08-06T20:19:15.738Z,64.92
2017-08-06T20:21:57.745Z,65.04
2017-08-06T20:24:40.969Z,65.21
2017-08-06T20:27:21.049Z,65.29
2017-08-06T20:30:03.294Z,65.47
2017-08-06T20:32:46.180Z,65.71
2017-08-06T20:35:29.579Z,65.90
2017-08-06T20:38:12.457Z,65.93
2017-08-06T20:40:53.466Z,66.15
2017-08-06T20:43:39.107Z,66.18
2017-08-06T20:46:20.476Z,66.27
2017-08-06T20:49:03.820Z,66.51
2017-08-06T20:51:45.862Z,66.43
2017-08-06T20:54:29.458Z,66.66
2017-08-06T20:57:18.697Z,66.78
2017-08-06T21:00:00.637Z,66.88
2017-08-06T21:02:43.290Z,66.97
2017-08-06T21:05:26.495Z,66.94
2017-08-06T21:08:09.439Z,67.08
2017-08-06T21:10:41.186Z,67.17
2017-08-06T21:13:07.885Z,67.29
2017-08-06T21:15:34.362Z,67.37
2017-08-06T21:18:00.853Z,67.42
2017-08-06T21:20:27.271Z,67.45
2017-08-06T21:22:53.760Z,67.54
2017-08-06T21:25:20.223Z,67.60
2017-08-06T21:27:47.509Z,67.68
2017-08-06T21:30:13.984Z,67.77
2017-08-06T21:32:40.396Z,67.66
2017-08-06T21:35:06.834Z,67.92
2017-08-06T21:37:33.300Z,68.03
2017-08-06T21:39:59.774Z,68.08
2017-08-06T21:42:26.254Z,68.23
2017-08-06T21:44:52.656Z,68.14
2017-08-06T21:47:19.144Z,68.33
2017-08-06T21:49:45.663Z,68.32
2017-08-06T21:52:12.147Z,68.44
2017-08-06T21:54:38.655Z,68.50
2017-08-06T21:57:05.178Z,68.47
2017-08-06T21:59:31.599Z,68.59
2017-08-06T22:02:05.778Z,68.66
2017-08-06T22:04:32.674Z,68.75
2017-08-06T22:06:59.997Z,68.92
2017-08-06T22:09:27.338Z,68.78
2017-08-06T22:11:54.590Z,69.01
2017-08-06T22:14:21.683Z,68.89
2017-08-06T22:16:48.465Z,69.02
2017-08-06T22:19:16.523Z,69.09
2017-08-06T22:21:44.052Z,69.15
2017-08-06T22:24:11.896Z,69.26
2017-08-06T22:26:39.443Z,69.09
2017-08-06T22:29:06.903Z,69.34
2017-08-06T22:31:33.367Z,69.34
2017-08-06T22:34:00.930Z,69.40
2017-08-06T22:36:28.671Z,69.36
2017-08-06T22:38:55.499Z,69.41
2017-08-06T22:41:22.992Z,69.62
2017-08-06T22:43:50.850Z,69.73
2017-08-06T22:46:18.812Z,69.84
2017-08-06T22:48:46.418Z,69.83
2017-08-06T22:51:14.835Z,69.80
2017-08-06T22:53:43.279Z,69.88
2017-08-06T22:56:09.945Z,69.99
2017-08-06T22:58:36.498Z,70.01
2017-08-06T23:01:03.776Z,70.04
2017-08-06T23:03:30.580Z,70.08
2017-08-06T23:05:57.835Z,70.22
2017-08-06T23:08:24.216Z,70.11
2017-08-06T23:10:51.123Z,70.16
2017-08-06T23:13:17.567Z,70.16
2017-08-06T23:15:44.004Z,70.35
2017-08-06T23:18:10.474Z,70.31
2017-08-06T23:20:36.932Z,70.38
2017-08-06T23:23:03.822Z,70.48
2017-08-06T23:25:30.331Z,70.41
2017-08-06T23:27:56.750Z,70.49
2017-08-06T23:30:23.258Z,70.74
2017-08-06T23:32:49.935Z,70.66
2017-08-06T23:35:16.403Z,70.61
2017-08-06T23:37:42.792Z,70.77
2017-08-06T23:40:09.236Z,70.98
2017-08-06T23:42:35.696Z,70.80
2017-08-06T23:45:02.086Z,70.85
2017-08-06T23:47:28.545Z,71.02
2017-08-06T23:49:55.042Z,70.94
2017-08-06T23:52:21.605Z,71.03
2017-08-06T23:54:48.072Z,71.03
2017-08-06T23:57:14.515Z,70.97
2017-08-06T23:59:40.922Z,71.21
